sensor_id;sensor_type;location;lat;lon;timestamp;P1;durP1;ratioP1;P2;durP2;ratioP2
22030;SDS011;11179;52.106;21.024;2022-08-19T00:00:03;35.40;;;15.50;;
22030;SDS011;11179;52.106;21.024;2022-08-19T00:02:30;25.30;;;15.03;;
22030;SDS011;11179;52.106;21.024;2022-08-19T00:04:55;23.13;;;14.87;;
22030;SDS011;11179;52.106;21.024;2022-08-19T00:07:20;23.87;;;14.53;;
22030;SDS011;11179;52.106;21.024;2022-08-19T00:09:46;25.50;;;14.53;;
22030;SDS011;11179;52.106;21.024;2022-08-19T00:12:11;24.00;;;15.33;;
22030;SDS011;11179;52.106;21.024;2022-08-19T00:14:37;26.63;;;14.37;;
22030;SDS011;11179;52.106;21.024;2022-08-19T00:17:04;25.80;;;15.60;;
22030;SDS011;11179;52.106;21.024;2022-08-19T00:19:31;22.47;;;15.00;;
22030;SDS011;11179;52.106;21.024;2022-08-19T00:21:58;29.50;;;15.90;;
22030;SDS011;11179;52.106;21.024;2022-08-19T00:24:23;25.13;;;14.37;;
22030;SDS011;11179;52.106;21.024;2022-08-19T00:26:49;24.60;;;16.10;;
22030;SDS011;11179;52.106;21.024;2022-08-19T00:29:16;25.23;;;15.20;;
22030;SDS011;11179;52.106;21.024;2022-08-19T00:31:44;24.67;;;14.80;;
22030;SDS011;11179;52.106;21.024;2022-08-19T00:34:10;23.43;;;14.97;;
22030;SDS011;11179;52.106;21.024;2022-08-19T00:36:36;25.27;;;14.33;;
22030;SDS011;11179;52.106;21.024;2022-08-19T00:39:03;25.63;;;15.97;;
22030;SDS011;11179;52.106;21.024;2022-08-19T00:41:29;21.60;;;14.80;;
22030;SDS011;11179;52.106;21.024;2022-08-19T00:46:38;25.23;;;14.87;;
22030;SDS011;11179;52.106;21.024;2022-08-19T00:49:06;26.43;;;16.03;;
22030;SDS011;11179;52.106;21.024;2022-08-19T00:51:39;26.73;;;15.93;;
22030;SDS011;11179;52.106;21.024;2022-08-19T00:54:06;24.73;;;16.17;;
22030;SDS011;11179;52.106;21.024;2022-08-19T00:56:31;23.17;;;15.40;;
22030;SDS011;11179;52.106;21.024;2022-08-19T00:58:57;26.00;;;16.83;;
22030;SDS011;11179;52.106;21.024;2022-08-19T01:01:24;24.33;;;15.90;;
22030;SDS011;11179;52.106;21.024;2022-08-19T01:03:49;27.60;;;15.80;;
22030;SDS011;11179;52.106;21.024;2022-08-19T01:06:15;27.80;;;17.20;;
22030;SDS011;11179;52.106;21.024;2022-08-19T01:08:41;25.80;;;16.13;;
22030;SDS011;11179;52.106;21.024;2022-08-19T01:11:06;27.67;;;16.83;;
22030;SDS011;11179;52.106;21.024;2022-08-19T01:13:33;28.73;;;17.20;;
22030;SDS011;11179;52.106;21.024;2022-08-19T01:16:03;31.13;;;15.97;;
22030;SDS011;11179;52.106;21.024;2022-08-19T01:18:32;26.37;;;15.27;;
22030;SDS011;11179;52.106;21.024;2022-08-19T01:21:02;26.40;;;16.10;;
22030;SDS011;11179;52.106;21.024;2022-08-19T01:23:32;21.37;;;14.93;;
22030;SDS011;11179;52.106;21.024;2022-08-19T01:26:20;27.17;;;14.33;;
22030;SDS011;11179;52.106;21.024;2022-08-19T01:28:48;43.37;;;18.20;;
22030;SDS011;11179;52.106;21.024;2022-08-19T01:31:19;25.33;;;14.40;;
22030;SDS011;11179;52.106;21.024;2022-08-19T01:33:47;21.93;;;15.70;;
22030;SDS011;11179;52.106;21.024;2022-08-19T01:36:15;24.33;;;14.70;;
22030;SDS011;11179;52.106;21.024;2022-08-19T01:38:47;25.33;;;15.70;;
22030;SDS011;11179;52.106;21.024;2022-08-19T01:41:14;24.37;;;14.70;;
22030;SDS011;11179;52.106;21.024;2022-08-19T01:43:40;24.80;;;15.20;;
22030;SDS011;11179;52.106;21.024;2022-08-19T01:46:05;24.83;;;14.90;;
22030;SDS011;11179;52.106;21.024;2022-08-19T01:48:36;24.23;;;15.73;;
22030;SDS011;11179;52.106;21.024;2022-08-19T01:51:05;35.60;;;16.17;;
22030;SDS011;11179;52.106;21.024;2022-08-19T01:53:32;30.93;;;16.50;;
22030;SDS011;11179;52.106;21.024;2022-08-19T01:55:58;22.60;;;14.90;;
22030;SDS011;11179;52.106;21.024;2022-08-19T01:58:24;22.93;;;14.37;;
22030;SDS011;11179;52.106;21.024;2022-08-19T02:01:01;29.07;;;16.80;;
22030;SDS011;11179;52.106;21.024;2022-08-19T02:03:28;28.70;;;14.93;;
22030;SDS011;11179;52.106;21.024;2022-08-19T02:05:57;30.90;;;16.53;;
22030;SDS011;11179;52.106;21.024;2022-08-19T02:08:25;23.83;;;14.50;;
22030;SDS011;11179;52.106;21.024;2022-08-19T02:10:52;25.10;;;15.10;;
22030;SDS011;11179;52.106;21.024;2022-08-19T02:13:18;25.90;;;14.30;;
22030;SDS011;11179;52.106;21.024;2022-08-19T02:15:43;24.80;;;15.33;;
22030;SDS011;11179;52.106;21.024;2022-08-19T02:18:09;23.70;;;15.10;;
22030;SDS011;11179;52.106;21.024;2022-08-19T02:20:35;23.03;;;15.40;;
22030;SDS011;11179;52.106;21.024;2022-08-19T02:23:02;29.03;;;17.03;;
22030;SDS011;11179;52.106;21.024;2022-08-19T02:25:27;29.17;;;16.30;;
22030;SDS011;11179;52.106;21.024;2022-08-19T02:27:53;25.13;;;15.30;;
22030;SDS011;11179;52.106;21.024;2022-08-19T02:30:19;23.97;;;16.67;;
22030;SDS011;11179;52.106;21.024;2022-08-19T02:32:45;24.87;;;15.83;;
22030;SDS011;11179;52.106;21.024;2022-08-19T02:35:12;26.00;;;16.37;;
22030;SDS011;11179;52.106;21.024;2022-08-19T02:37:39;28.80;;;15.37;;
22030;SDS011;11179;52.106;21.024;2022-08-19T02:40:23;23.97;;;14.40;;
22030;SDS011;11179;52.106;21.024;2022-08-19T02:42:48;24.07;;;15.13;;
22030;SDS011;11179;52.106;21.024;2022-08-19T02:45:14;25.30;;;15.97;;
22030;SDS011;11179;52.106;21.024;2022-08-19T02:47:39;29.00;;;17.07;;
22030;SDS011;11179;52.106;21.024;2022-08-19T02:50:05;25.73;;;15.83;;
22030;SDS011;11179;52.106;21.024;2022-08-19T02:52:32;28.03;;;16.17;;
22030;SDS011;11179;52.106;21.024;2022-08-19T02:54:58;24.83;;;15.50;;
22030;SDS011;11179;52.106;21.024;2022-08-19T02:57:23;27.73;;;16.17;;
22030;SDS011;11179;52.106;21.024;2022-08-19T02:59:49;26.63;;;17.37;;
22030;SDS011;11179;52.106;21.024;2022-08-19T03:02:15;26.97;;;15.80;;
22030;SDS011;11179;52.106;21.024;2022-08-19T03:04:41;24.80;;;14.90;;
22030;SDS011;11179;52.106;21.024;2022-08-19T03:07:07;26.53;;;16.60;;
22030;SDS011;11179;52.106;21.024;2022-08-19T03:09:33;30.70;;;17.57;;
22030;SDS011;11179;52.106;21.024;2022-08-19T03:12:02;22.27;;;15.70;;
22030;SDS011;11179;52.106;21.024;2022-08-19T03:14:29;24.63;;;15.93;;
22030;SDS011;11179;52.106;21.024;2022-08-19T03:16:56;29.70;;;16.57;;
22030;SDS011;11179;52.106;21.024;2022-08-19T03:19:22;26.20;;;16.43;;
22030;SDS011;11179;52.106;21.024;2022-08-19T03:21:48;25.53;;;16.47;;
22030;SDS011;11179;52.106;21.024;2022-08-19T03:24:14;28.77;;;16.43;;
22030;SDS011;11179;52.106;21.024;2022-08-19T03:26:41;29.23;;;17.57;;
22030;SDS011;11179;52.106;21.024;2022-08-19T03:29:08;31.23;;;16.77;;
22030;SDS011;11179;52.106;21.024;2022-08-19T03:31:36;32.47;;;18.00;;
22030;SDS011;11179;52.106;21.024;2022-08-19T03:34:02;24.90;;;17.53;;
22030;SDS011;11179;52.106;21.024;2022-08-19T03:36:28;33.93;;;17.80;;
22030;SDS011;11179;52.106;21.024;2022-08-19T03:38:57;28.83;;;17.63;;
22030;SDS011;11179;52.106;21.024;2022-08-19T03:41:25;30.00;;;17.87;;
22030;SDS011;11179;52.106;21.024;2022-08-19T03:43:56;26.13;;;16.33;;
22030;SDS011;11179;52.106;21.024;2022-08-19T03:46:23;27.63;;;16.97;;
22030;SDS011;11179;52.106;21.024;2022-08-19T03:48:51;25.77;;;17.53;;
22030;SDS011;11179;52.106;21.024;2022-08-19T03:51:28;27.93;;;16.53;;
22030;SDS011;11179;52.106;21.024;2022-08-19T03:53:56;26.70;;;16.70;;
22030;SDS011;11179;52.106;21.024;2022-08-19T03:56:23;25.63;;;17.20;;
22030;SDS011;11179;52.106;21.024;2022-08-19T03:58:51;26.43;;;16.10;;
22030;SDS011;11179;52.106;21.024;2022-08-19T04:01:19;30.83;;;17.93;;
22030;SDS011;11179;52.106;21.024;2022-08-19T04:03:47;32.33;;;16.50;;
22030;SDS011;11179;52.106;21.024;2022-08-19T04:06:17;33.33;;;17.50;;
22030;SDS011;11179;52.106;21.024;2022-08-19T04:09:05;31.43;;;18.50;;
22030;SDS011;11179;52.106;21.024;2022-08-19T04:11:34;25.40;;;17.13;;
22030;SDS011;11179;52.106;21.024;2022-08-19T04:14:07;26.90;;;17.50;;
22030;SDS011;11179;52.106;21.024;2022-08-19T04:16:33;27.30;;;16.63;;
22030;SDS011;11179;52.106;21.024;2022-08-19T04:19:00;24.60;;;16.97;;
22030;SDS011;11179;52.106;21.024;2022-08-19T04:21:27;28.33;;;17.43;;
22030;SDS011;11179;52.106;21.024;2022-08-19T04:23:53;31.37;;;17.30;;
22030;SDS011;11179;52.106;21.024;2022-08-19T04:26:25;25.27;;;16.60;;
22030;SDS011;11179;52.106;21.024;2022-08-19T04:28:57;29.30;;;17.30;;
22030;SDS011;11179;52.106;21.024;2022-08-19T04:31:25;27.10;;;15.70;;
22030;SDS011;11179;52.106;21.024;2022-08-19T04:33:53;27.63;;;16.17;;
22030;SDS011;11179;52.106;21.024;2022-08-19T04:36:22;36.23;;;18.17;;
22030;SDS011;11179;52.106;21.024;2022-08-19T04:38:52;26.60;;;15.40;;
22030;SDS011;11179;52.106;21.024;2022-08-19T04:41:19;28.87;;;16.87;;
22030;SDS011;11179;52.106;21.024;2022-08-19T04:44:05;27.03;;;14.63;;
22030;SDS011;11179;52.106;21.024;2022-08-19T04:46:31;30.77;;;16.47;;
22030;SDS011;11179;52.106;21.024;2022-08-19T04:48:57;28.10;;;15.17;;
22030;SDS011;11179;52.106;21.024;2022-08-19T04:51:24;29.93;;;16.83;;
22030;SDS011;11179;52.106;21.024;2022-08-19T04:53:50;23.67;;;14.37;;
22030;SDS011;11179;52.106;21.024;2022-08-19T04:56:17;23.43;;;15.40;;
22030;SDS011;11179;52.106;21.024;2022-08-19T04:58:45;24.53;;;14.70;;
22030;SDS011;11179;52.106;21.024;2022-08-19T05:01:11;24.90;;;16.00;;
22030;SDS011;11179;52.106;21.024;2022-08-19T05:03:43;25.17;;;15.27;;
22030;SDS011;11179;52.106;21.024;2022-08-19T05:06:10;27.57;;;15.80;;
22030;SDS011;11179;52.106;21.024;2022-08-19T05:08:38;25.13;;;15.93;;
22030;SDS011;11179;52.106;21.024;2022-08-19T05:11:11;25.20;;;16.07;;
22030;SDS011;11179;52.106;21.024;2022-08-19T05:13:39;21.73;;;14.23;;
22030;SDS011;11179;52.106;21.024;2022-08-19T05:16:04;23.33;;;14.63;;
22030;SDS011;11179;52.106;21.024;2022-08-19T05:18:30;23.77;;;14.57;;
22030;SDS011;11179;52.106;21.024;2022-08-19T05:21:15;26.30;;;15.67;;
22030;SDS011;11179;52.106;21.024;2022-08-19T05:24:01;28.60;;;14.43;;
22030;SDS011;11179;52.106;21.024;2022-08-19T05:26:27;23.73;;;14.70;;
22030;SDS011;11179;52.106;21.024;2022-08-19T05:28:53;26.53;;;17.30;;
22030;SDS011;11179;52.106;21.024;2022-08-19T05:31:20;25.40;;;14.50;;
22030;SDS011;11179;52.106;21.024;2022-08-19T05:33:46;22.07;;;14.83;;
22030;SDS011;11179;52.106;21.024;2022-08-19T05:36:12;22.20;;;14.57;;
22030;SDS011;11179;52.106;21.024;2022-08-19T05:38:38;26.03;;;13.23;;
22030;SDS011;11179;52.106;21.024;2022-08-19T05:41:10;19.20;;;13.07;;
22030;SDS011;11179;52.106;21.024;2022-08-19T05:43:37;26.73;;;15.60;;
22030;SDS011;11179;52.106;21.024;2022-08-19T05:46:06;31.07;;;14.73;;
22030;SDS011;11179;52.106;21.024;2022-08-19T05:48:33;20.97;;;13.30;;
22030;SDS011;11179;52.106;21.024;2022-08-19T05:51:03;26.60;;;13.80;;
22030;SDS011;11179;52.106;21.024;2022-08-19T05:53:33;19.87;;;12.80;;
22030;SDS011;11179;52.106;21.024;2022-08-19T05:56:07;21.87;;;11.67;;
22030;SDS011;11179;52.106;21.024;2022-08-19T05:58:34;23.93;;;12.77;;
22030;SDS011;11179;52.106;21.024;2022-08-19T06:01:00;23.63;;;12.97;;
22030;SDS011;11179;52.106;21.024;2022-08-19T06:03:29;25.70;;;12.60;;
22030;SDS011;11179;52.106;21.024;2022-08-19T06:05:55;22.03;;;12.97;;
22030;SDS011;11179;52.106;21.024;2022-08-19T06:08:24;26.17;;;14.30;;
22030;SDS011;11179;52.106;21.024;2022-08-19T06:10:49;25.00;;;12.63;;
22030;SDS011;11179;52.106;21.024;2022-08-19T06:13:14;27.73;;;13.13;;
22030;SDS011;11179;52.106;21.024;2022-08-19T06:15:40;28.63;;;13.60;;
22030;SDS011;11179;52.106;21.024;2022-08-19T06:18:08;23.57;;;13.13;;
22030;SDS011;11179;52.106;21.024;2022-08-19T06:20:34;19.03;;;12.10;;
22030;SDS011;11179;52.106;21.024;2022-08-19T06:22:59;20.60;;;13.13;;
22030;SDS011;11179;52.106;21.024;2022-08-19T06:25:25;23.93;;;11.80;;
22030;SDS011;11179;52.106;21.024;2022-08-19T06:27:50;25.87;;;13.80;;
22030;SDS011;11179;52.106;21.024;2022-08-19T06:30:15;26.33;;;12.57;;
22030;SDS011;11179;52.106;21.024;2022-08-19T06:32:41;33.67;;;13.67;;
22030;SDS011;11179;52.106;21.024;2022-08-19T06:35:06;20.70;;;12.93;;
22030;SDS011;11179;52.106;21.024;2022-08-19T06:37:32;21.83;;;12.70;;
22030;SDS011;11179;52.106;21.024;2022-08-19T06:39:58;19.83;;;11.43;;
22030;SDS011;11179;52.106;21.024;2022-08-19T06:42:23;17.13;;;11.20;;
22030;SDS011;11179;52.106;21.024;2022-08-19T06:44:49;19.40;;;11.80;;
22030;SDS011;11179;52.106;21.024;2022-08-19T06:47:16;30.23;;;12.30;;
22030;SDS011;11179;52.106;21.024;2022-08-19T06:49:45;16.33;;;11.00;;
22030;SDS011;11179;52.106;21.024;2022-08-19T06:52:10;23.87;;;12.13;;
22030;SDS011;11179;52.106;21.024;2022-08-19T06:54:39;21.17;;;12.57;;
22030;SDS011;11179;52.106;21.024;2022-08-19T06:57:06;19.43;;;11.90;;
22030;SDS011;11179;52.106;21.024;2022-08-19T06:59:34;19.53;;;11.23;;
22030;SDS011;11179;52.106;21.024;2022-08-19T07:02:00;21.03;;;11.40;;
22030;SDS011;11179;52.106;21.024;2022-08-19T07:04:30;22.13;;;11.27;;
22030;SDS011;11179;52.106;21.024;2022-08-19T07:06:58;21.27;;;10.77;;
22030;SDS011;11179;52.106;21.024;2022-08-19T07:09:25;20.83;;;11.07;;
22030;SDS011;11179;52.106;21.024;2022-08-19T07:11:52;19.63;;;11.37;;
22030;SDS011;11179;52.106;21.024;2022-08-19T07:14:19;18.97;;;10.57;;
22030;SDS011;11179;52.106;21.024;2022-08-19T07:16:47;22.80;;;12.33;;
22030;SDS011;11179;52.106;21.024;2022-08-19T07:19:14;19.53;;;9.80;;
22030;SDS011;11179;52.106;21.024;2022-08-19T07:21:40;24.07;;;11.60;;
22030;SDS011;11179;52.106;21.024;2022-08-19T07:24:06;15.90;;;10.73;;
22030;SDS011;11179;52.106;21.024;2022-08-19T07:26:32;22.00;;;10.37;;
22030;SDS011;11179;52.106;21.024;2022-08-19T07:29:05;18.80;;;10.77;;
22030;SDS011;11179;52.106;21.024;2022-08-19T07:31:31;15.63;;;10.30;;
22030;SDS011;11179;52.106;21.024;2022-08-19T07:34:02;14.97;;;10.10;;
22030;SDS011;11179;52.106;21.024;2022-08-19T07:36:33;30.80;;;11.70;;
22030;SDS011;11179;52.106;21.024;2022-08-19T07:39:01;23.50;;;10.87;;
22030;SDS011;11179;52.106;21.024;2022-08-19T07:41:29;17.13;;;10.60;;
22030;SDS011;11179;52.106;21.024;2022-08-19T07:43:56;17.40;;;11.00;;
22030;SDS011;11179;52.106;21.024;2022-08-19T07:46:23;21.40;;;12.20;;
22030;SDS011;11179;52.106;21.024;2022-08-19T07:48:49;16.87;;;10.20;;
22030;SDS011;11179;52.106;21.024;2022-08-19T07:51:19;16.30;;;9.90;;
22030;SDS011;11179;52.106;21.024;2022-08-19T07:53:46;19.73;;;10.37;;
22030;SDS011;11179;52.106;21.024;2022-08-19T07:56:13;15.67;;;9.90;;
22030;SDS011;11179;52.106;21.024;2022-08-19T07:58:39;15.47;;;9.93;;
22030;SDS011;11179;52.106;21.024;2022-08-19T08:01:09;15.30;;;9.90;;
22030;SDS011;11179;52.106;21.024;2022-08-19T08:03:37;17.63;;;9.80;;
22030;SDS011;11179;52.106;21.024;2022-08-19T08:06:21;18.70;;;10.67;;
22030;SDS011;11179;52.106;21.024;2022-08-19T08:09:05;14.73;;;10.70;;
22030;SDS011;11179;52.106;21.024;2022-08-19T08:12:00;18.50;;;10.90;;
22030;SDS011;11179;52.106;21.024;2022-08-19T08:14:38;25.03;;;10.50;;
22030;SDS011;11179;52.106;21.024;2022-08-19T08:17:07;15.90;;;10.67;;
22030;SDS011;11179;52.106;21.024;2022-08-19T08:19:33;17.20;;;11.10;;
22030;SDS011;11179;52.106;21.024;2022-08-19T08:21:59;15.20;;;10.73;;
22030;SDS011;11179;52.106;21.024;2022-08-19T08:24:29;17.43;;;10.57;;
22030;SDS011;11179;52.106;21.024;2022-08-19T08:26:56;16.60;;;10.60;;
22030;SDS011;11179;52.106;21.024;2022-08-19T08:29:24;23.07;;;11.80;;
22030;SDS011;11179;52.106;21.024;2022-08-19T08:31:50;18.40;;;10.87;;
22030;SDS011;11179;52.106;21.024;2022-08-19T08:34:16;17.43;;;10.43;;
22030;SDS011;11179;52.106;21.024;2022-08-19T08:36:43;21.90;;;10.97;;
22030;SDS011;11179;52.106;21.024;2022-08-19T08:39:17;14.40;;;9.37;;
22030;SDS011;11179;52.106;21.024;2022-08-19T08:44:55;28.17;;;9.90;;
22030;SDS011;11179;52.106;21.024;2022-08-19T08:47:24;14.47;;;9.30;;
22030;SDS011;11179;52.106;21.024;2022-08-19T08:50:00;16.67;;;8.67;;
22030;SDS011;11179;52.106;21.024;2022-08-19T08:52:30;26.17;;;10.33;;
22030;SDS011;11179;52.106;21.024;2022-08-19T08:55:03;13.53;;;7.97;;
22030;SDS011;11179;52.106;21.024;2022-08-19T09:02:47;14.27;;;9.07;;
22030;SDS011;11179;52.106;21.024;2022-08-19T09:05:13;31.13;;;10.50;;
22030;SDS011;11179;52.106;21.024;2022-08-19T09:07:42;16.93;;;8.77;;
22030;SDS011;11179;52.106;21.024;2022-08-19T09:15:46;16.23;;;9.10;;
22030;SDS011;11179;52.106;21.024;2022-08-19T09:18:16;32.13;;;9.00;;
22030;SDS011;11179;52.106;21.024;2022-08-19T09:20:41;28.53;;;10.40;;
22030;SDS011;11179;52.106;21.024;2022-08-19T09:23:07;19.87;;;9.20;;
22030;SDS011;11179;52.106;21.024;2022-08-19T09:25:33;16.20;;;9.10;;
22030;SDS011;11179;52.106;21.024;2022-08-19T09:27:59;15.50;;;8.83;;
22030;SDS011;11179;52.106;21.024;2022-08-19T09:30:29;19.00;;;9.03;;
22030;SDS011;11179;52.106;21.024;2022-08-19T09:32:57;15.27;;;9.10;;
22030;SDS011;11179;52.106;21.024;2022-08-19T09:35:23;12.07;;;8.37;;
22030;SDS011;11179;52.106;21.024;2022-08-19T09:37:50;23.10;;;9.37;;
22030;SDS011;11179;52.106;21.024;2022-08-19T09:40:17;11.87;;;8.30;;
22030;SDS011;11179;52.106;21.024;2022-08-19T09:42:43;18.20;;;7.67;;
22030;SDS011;11179;52.106;21.024;2022-08-19T09:45:11;19.50;;;9.03;;
22030;SDS011;11179;52.106;21.024;2022-08-19T09:47:37;13.50;;;8.07;;
22030;SDS011;11179;52.106;21.024;2022-08-19T09:50:04;24.70;;;8.00;;
22030;SDS011;11179;52.106;21.024;2022-08-19T09:52:31;46.43;;;10.60;;
22030;SDS011;11179;52.106;21.024;2022-08-19T09:54:56;42.30;;;11.30;;
22030;SDS011;11179;52.106;21.024;2022-08-19T09:57:22;23.60;;;9.40;;
22030;SDS011;11179;52.106;21.024;2022-08-19T09:59:47;16.37;;;7.73;;
22030;SDS011;11179;52.106;21.024;2022-08-19T10:02:13;28.93;;;8.80;;
22030;SDS011;11179;52.106;21.024;2022-08-19T10:04:38;15.63;;;8.50;;
22030;SDS011;11179;52.106;21.024;2022-08-19T10:07:22;16.70;;;8.27;;
22030;SDS011;11179;52.106;21.024;2022-08-19T10:09:48;17.20;;;8.90;;
22030;SDS011;11179;52.106;21.024;2022-08-19T10:12:13;16.23;;;7.87;;
22030;SDS011;11179;52.106;21.024;2022-08-19T10:14:40;24.10;;;8.40;;
22030;SDS011;11179;52.106;21.024;2022-08-19T10:17:05;18.37;;;8.77;;
22030;SDS011;11179;52.106;21.024;2022-08-19T10:19:31;18.83;;;9.17;;
22030;SDS011;11179;52.106;21.024;2022-08-19T10:22:02;14.20;;;8.17;;
22030;SDS011;11179;52.106;21.024;2022-08-19T10:24:28;18.40;;;9.43;;
22030;SDS011;11179;52.106;21.024;2022-08-19T10:26:55;14.43;;;8.40;;
22030;SDS011;11179;52.106;21.024;2022-08-19T10:29:21;25.70;;;9.03;;
22030;SDS011;11179;52.106;21.024;2022-08-19T10:31:47;29.50;;;10.00;;
22030;SDS011;11179;52.106;21.024;2022-08-19T10:34:12;31.30;;;9.20;;
22030;SDS011;11179;52.106;21.024;2022-08-19T10:36:38;26.70;;;9.60;;
22030;SDS011;11179;52.106;21.024;2022-08-19T10:39:05;15.80;;;8.00;;
22030;SDS011;11179;52.106;21.024;2022-08-19T10:41:34;21.13;;;9.30;;
22030;SDS011;11179;52.106;21.024;2022-08-19T10:44:03;18.83;;;8.70;;
22030;SDS011;11179;52.106;21.024;2022-08-19T10:46:31;23.53;;;10.27;;
22030;SDS011;11179;52.106;21.024;2022-08-19T10:49:02;25.23;;;10.97;;
22030;SDS011;11179;52.106;21.024;2022-08-19T10:51:30;18.70;;;8.73;;
22030;SDS011;11179;52.106;21.024;2022-08-19T10:54:15;16.40;;;9.10;;
22030;SDS011;11179;52.106;21.024;2022-08-19T10:56:42;31.23;;;10.40;;
22030;SDS011;11179;52.106;21.024;2022-08-19T10:59:17;19.83;;;9.67;;
22030;SDS011;11179;52.106;21.024;2022-08-19T11:01:45;15.93;;;9.83;;
22030;SDS011;11179;52.106;21.024;2022-08-19T11:04:11;15.97;;;9.57;;
22030;SDS011;11179;52.106;21.024;2022-08-19T11:06:41;17.60;;;9.80;;
22030;SDS011;11179;52.106;21.024;2022-08-19T11:09:08;15.37;;;9.27;;
22030;SDS011;11179;52.106;21.024;2022-08-19T11:11:34;19.70;;;9.70;;
22030;SDS011;11179;52.106;21.024;2022-08-19T11:14:06;23.10;;;8.83;;
22030;SDS011;11179;52.106;21.024;2022-08-19T11:16:33;29.20;;;10.10;;
22030;SDS011;11179;52.106;21.024;2022-08-19T11:18:58;18.80;;;9.63;;
22030;SDS011;11179;52.106;21.024;2022-08-19T11:21:26;17.73;;;9.57;;
22030;SDS011;11179;52.106;21.024;2022-08-19T11:23:55;27.93;;;12.17;;
22030;SDS011;11179;52.106;21.024;2022-08-19T11:26:22;40.37;;;11.80;;
22030;SDS011;11179;52.106;21.024;2022-08-19T11:28:49;13.50;;;9.30;;
22030;SDS011;11179;52.106;21.024;2022-08-19T11:31:20;18.57;;;9.97;;
22030;SDS011;11179;52.106;21.024;2022-08-19T11:33:47;17.23;;;9.97;;
22030;SDS011;11179;52.106;21.024;2022-08-19T11:36:16;20.60;;;9.53;;
22030;SDS011;11179;52.106;21.024;2022-08-19T11:38:43;18.80;;;9.10;;
22030;SDS011;11179;52.106;21.024;2022-08-19T11:41:10;15.77;;;9.70;;
22030;SDS011;11179;52.106;21.024;2022-08-19T11:43:35;30.17;;;10.30;;
22030;SDS011;11179;52.106;21.024;2022-08-19T11:46:11;23.10;;;10.10;;
22030;SDS011;11179;52.106;21.024;2022-08-19T11:48:39;17.30;;;9.83;;
22030;SDS011;11179;52.106;21.024;2022-08-19T11:51:06;15.47;;;8.10;;
22030;SDS011;11179;52.106;21.024;2022-08-19T11:53:34;16.80;;;9.90;;
22030;SDS011;11179;52.106;21.024;2022-08-19T11:56:01;18.60;;;10.13;;
22030;SDS011;11179;52.106;21.024;2022-08-19T11:58:27;26.70;;;10.10;;
22030;SDS011;11179;52.106;21.024;2022-08-19T12:00:54;19.30;;;9.60;;
22030;SDS011;11179;52.106;21.024;2022-08-19T12:03:19;26.13;;;9.37;;
22030;SDS011;11179;52.106;21.024;2022-08-19T12:05:45;23.73;;;9.13;;
22030;SDS011;11179;52.106;21.024;2022-08-19T12:08:10;20.63;;;9.23;;
22030;SDS011;11179;52.106;21.024;2022-08-19T12:10:37;14.97;;;9.40;;
22030;SDS011;11179;52.106;21.024;2022-08-19T12:13:04;23.77;;;10.00;;
22030;SDS011;11179;52.106;21.024;2022-08-19T12:15:30;21.50;;;8.60;;
22030;SDS011;11179;52.106;21.024;2022-08-19T12:17:56;14.37;;;8.60;;
22030;SDS011;11179;52.106;21.024;2022-08-19T12:20:22;18.90;;;9.70;;
22030;SDS011;11179;52.106;21.024;2022-08-19T12:22:49;17.73;;;8.77;;
22030;SDS011;11179;52.106;21.024;2022-08-19T12:25:15;19.10;;;9.20;;
22030;SDS011;11179;52.106;21.024;2022-08-19T12:27:40;17.40;;;9.20;;
22030;SDS011;11179;52.106;21.024;2022-08-19T12:30:07;15.30;;;8.53;;
22030;SDS011;11179;52.106;21.024;2022-08-19T12:32:34;18.03;;;8.90;;
22030;SDS011;11179;52.106;21.024;2022-08-19T12:34:59;14.93;;;8.13;;
22030;SDS011;11179;52.106;21.024;2022-08-19T12:37:25;18.40;;;8.90;;
22030;SDS011;11179;52.106;21.024;2022-08-19T12:39:51;33.17;;;10.50;;
22030;SDS011;11179;52.106;21.024;2022-08-19T12:42:16;27.00;;;9.27;;
22030;SDS011;11179;52.106;21.024;2022-08-19T12:44:43;16.03;;;8.60;;
22030;SDS011;11179;52.106;21.024;2022-08-19T12:47:09;19.30;;;8.57;;
22030;SDS011;11179;52.106;21.024;2022-08-19T12:49:37;36.03;;;10.07;;
22030;SDS011;11179;52.106;21.024;2022-08-19T12:52:06;20.77;;;9.00;;
22030;SDS011;11179;52.106;21.024;2022-08-19T12:54:33;13.93;;;8.93;;
22030;SDS011;11179;52.106;21.024;2022-08-19T12:57:00;16.80;;;8.80;;
22030;SDS011;11179;52.106;21.024;2022-08-19T12:59:29;14.97;;;8.13;;
22030;SDS011;11179;52.106;21.024;2022-08-19T13:01:54;16.80;;;8.17;;
22030;SDS011;11179;52.106;21.024;2022-08-19T13:04:20;14.80;;;8.70;;
22030;SDS011;11179;52.106;21.024;2022-08-19T13:06:45;16.93;;;7.93;;
22030;SDS011;11179;52.106;21.024;2022-08-19T13:09:11;15.43;;;7.93;;
22030;SDS011;11179;52.106;21.024;2022-08-19T13:11:37;11.40;;;7.47;;
22030;SDS011;11179;52.106;21.024;2022-08-19T13:14:02;14.83;;;8.73;;
22030;SDS011;11179;52.106;21.024;2022-08-19T13:16:28;23.10;;;8.53;;
22030;SDS011;11179;52.106;21.024;2022-08-19T13:18:55;20.80;;;8.73;;
22030;SDS011;11179;52.106;21.024;2022-08-19T13:21:23;21.47;;;8.70;;
22030;SDS011;11179;52.106;21.024;2022-08-19T13:23:51;71.83;;;12.20;;
22030;SDS011;11179;52.106;21.024;2022-08-19T13:26:16;16.10;;;8.00;;
22030;SDS011;11179;52.106;21.024;2022-08-19T13:28:42;22.77;;;8.77;;
22030;SDS011;11179;52.106;21.024;2022-08-19T13:31:29;29.20;;;10.30;;
22030;SDS011;11179;52.106;21.024;2022-08-19T13:34:15;13.87;;;7.90;;
22030;SDS011;11179;52.106;21.024;2022-08-19T13:36:41;23.13;;;8.20;;
22030;SDS011;11179;52.106;21.024;2022-08-19T13:39:07;12.30;;;7.40;;
22030;SDS011;11179;52.106;21.024;2022-08-19T13:41:34;83.83;;;12.80;;
22030;SDS011;11179;52.106;21.024;2022-08-19T13:44:01;20.20;;;7.80;;
22030;SDS011;11179;52.106;21.024;2022-08-19T13:46:27;15.60;;;7.30;;
22030;SDS011;11179;52.106;21.024;2022-08-19T13:48:55;15.03;;;7.00;;
22030;SDS011;11179;52.106;21.024;2022-08-19T13:51:21;12.13;;;7.60;;
22030;SDS011;11179;52.106;21.024;2022-08-19T13:53:47;14.10;;;7.03;;
22030;SDS011;11179;52.106;21.024;2022-08-19T13:56:14;13.70;;;6.90;;
22030;SDS011;11179;52.106;21.024;2022-08-19T13:58:42;11.17;;;6.20;;
22030;SDS011;11179;52.106;21.024;2022-08-19T14:01:08;14.30;;;6.40;;
22030;SDS011;11179;52.106;21.024;2022-08-19T14:03:35;10.80;;;6.37;;
22030;SDS011;11179;52.106;21.024;2022-08-19T14:06:01;14.23;;;6.87;;
22030;SDS011;11179;52.106;21.024;2022-08-19T14:08:27;16.23;;;7.10;;
22030;SDS011;11179;52.106;21.024;2022-08-19T14:10:53;13.33;;;6.90;;
22030;SDS011;11179;52.106;21.024;2022-08-19T14:13:20;14.50;;;6.67;;
22030;SDS011;11179;52.106;21.024;2022-08-19T14:15:47;35.77;;;7.13;;
22030;SDS011;11179;52.106;21.024;2022-08-19T14:18:14;14.23;;;6.60;;
22030;SDS011;11179;52.106;21.024;2022-08-19T14:20:41;14.77;;;6.80;;
22030;SDS011;11179;52.106;21.024;2022-08-19T14:23:06;14.30;;;6.50;;
22030;SDS011;11179;52.106;21.024;2022-08-19T14:25:32;15.60;;;7.03;;
22030;SDS011;11179;52.106;21.024;2022-08-19T14:27:59;14.83;;;6.23;;
22030;SDS011;11179;52.106;21.024;2022-08-19T14:30:25;11.80;;;6.40;;
22030;SDS011;11179;52.106;21.024;2022-08-19T14:32:57;12.23;;;6.87;;